Time;durP1;ratioP1;P1;durP2;ratioP2;P2;SDS_P1;SDS_P2;PMS_P1;PMS_P2;Temp;Humidity;BMP_temperature;BMP_pressure;BME280_temperature;BME280_humidity;BME280_pressure;Samples;Min_cycle;Max_cycle;Signal;HPM_P1;HPM_P2
2022/03/26 00:00:14;;;;;;;35.28;13.55;;;;;;;15.77;33.91;102804.41;5041464;28;20021;-64
2022/03/26 00:02:40;;;;;;;34.40;13.07;;;;;;;15.67;33.89;102802.38;5040258;28;20079;-64
2022/03/26 00:05:05;;;;;;;29.10;13.20;;;;;;;15.66;33.51;102814.16;5042564;28;20021;-64
2022/03/26 00:07:31;;;;;;;28.80;11.63;;;;;;;15.61;33.12;102816.34;5045473;28;20100;-64
2022/03/26 00:09:56;;;;;;;30.15;13.23;;;;;;;15.52;33.71;102799.97;5043902;28;20024;-64
2022/03/26 00:12:21;;;;;;;38.70;14.10;;;;;;;15.54;33.17;102804.28;5039325;28;20022;-64
2022/03/26 00:14:47;;;;;;;38.50;14.13;;;;;;;15.58;32.90;102811.16;5042380;28;20407;-64
2022/03/26 00:17:12;;;;;;;39.22;13.63;;;;;;;15.56;34.01;102812.25;5042605;28;20026;-64
2022/03/26 00:19:38;;;;;;;37.22;13.48;;;;;;;15.58;32.85;102816.56;5041038;28;20063;-64
2022/03/26 00:22:03;;;;;;;37.92;13.60;;;;;;;15.56;33.85;102810.41;5042702;28;20017;-64
2022/03/26 00:24:28;;;;;;;33.42;12.52;;;;;;;15.49;34.30;102806.44;5042307;28;20017;-64
2022/03/26 00:26:54;;;;;;;29.30;12.70;;;;;;;15.48;34.49;102818.22;5041176;28;20029;-63
2022/03/26 00:29:19;;;;;;;26.88;12.70;;;;;;;15.43;33.47;102817.66;5033457;28;20025;-64
2022/03/26 00:31:45;;;;;;;29.30;13.40;;;;;;;15.38;33.77;102827.91;5033371;28;20399;-64
2022/03/26 00:34:10;;;;;;;35.08;14.18;;;;;;;15.33;34.28;102818.41;5033473;28;20026;-65
2022/03/26 00:36:36;;;;;;;34.08;13.57;;;;;;;15.25;33.76;102810.88;5035076;28;20040;-64
2022/03/26 00:39:02;;;;;;;39.55;14.02;;;;;;;15.27;34.86;102817.03;5019734;28;20087;-64
2022/03/26 00:41:31;;;;;;;38.47;13.80;;;;;;;15.20;34.73;102809.50;5036933;28;20057;-63
2022/03/26 00:43:56;;;;;;;36.03;15.10;;;;;;;15.20;34.53;102810.34;5036047;28;20035;-64
2022/03/26 00:46:22;;;;;;;36.95;14.60;;;;;;;15.24;34.75;102817.28;5035627;28;20026;-64
2022/03/26 00:48:48;;;;;;;33.95;14.65;;;;;;;15.24;33.66;102822.69;5036722;28;20105;-64
2022/03/26 00:51:15;;;;;;;33.50;15.38;;;;;;;15.23;34.01;102820.94;5019050;28;20033;-64
2022/03/26 00:53:41;;;;;;;38.33;15.60;;;;;;;15.22;34.37;102821.91;5036821;28;20025;-64
2022/03/26 00:56:07;;;;;;;39.40;14.10;;;;;;;15.21;33.55;102822.91;5035358;28;20107;-65
2022/03/26 00:58:32;;;;;;;37.05;15.95;;;;;;;15.16;34.43;102814.25;5036234;28;20096;-64
2022/03/26 01:00:58;;;;;;;44.25;15.98;;;;;;;15.16;34.69;102822.34;5035367;28;20025;-63
2022/03/26 01:03:23;;;;;;;36.60;16.13;;;;;;;15.13;34.68;102811.78;5036406;28;20024;-64
2022/03/26 01:05:48;;;;;;;38.10;13.80;;;;;;;15.12;33.98;102812.75;5036276;28;20100;-64
2022/03/26 01:08:14;;;;;;;35.33;14.43;;;;;;;15.10;33.83;102806.59;5036442;28;20105;-64
2022/03/26 01:10:41;;;;;;;38.10;14.85;;;;;;;15.09;34.51;102815.66;5036512;28;20029;-61
2022/03/26 01:13:07;;;;;;;39.80;15.93;;;;;;;15.04;35.04;102809.75;5036257;28;20029;-62
2022/03/26 01:15:32;;;;;;;38.10;14.38;;;;;;;15.04;33.98;102812.44;5036413;28;20041;-62
2022/03/26 01:17:58;;;;;;;39.85;15.13;;;;;;;15.00;33.91;102808.22;5036227;28;20026;-62
2022/03/26 01:20:23;;;;;;;38.83;15.73;;;;;;;14.91;34.74;102808.84;5018319;28;20116;-62
2022/03/26 01:22:48;;;;;;;37.88;13.18;;;;;;;14.91;34.10;102808.84;5036180;28;20032;-62
2022/03/26 01:25:14;;;;;;;28.10;12.90;;;;;;;14.85;34.35;102809.31;5036196;28;20040;-61
2022/03/26 01:27:39;;;;;;;42.20;15.68;;;;;;;14.79;35.16;102804.34;5035805;28;20087;-61
2022/03/26 01:30:06;;;;;;;37.75;14.57;;;;;;;14.74;34.36;102795.72;5036136;28;20037;-62
2022/03/26 01:32:31;;;;;;;38.67;15.93;;;;;;;14.73;34.84;102800.25;5035051;28;20037;-61
2022/03/26 01:34:57;;;;;;;36.90;15.73;;;;;;;14.74;35.39;102801.97;5034730;28;20063;-61
2022/03/26 01:37:24;;;;;;;38.22;15.25;;;;;;;14.75;35.18;102800.13;5034628;28;20438;-62
2022/03/26 01:39:50;;;;;;;34.80;14.32;;;;;;;14.75;35.27;102792.03;5035620;28;20025;-62
2022/03/26 01:42:16;;;;;;;35.22;15.18;;;;;;;14.74;34.38;102790.34;5017986;28;20029;-61
2022/03/26 01:44:42;;;;;;;34.70;14.27;;;;;;;14.72;34.40;102797.66;5017755;28;20075;-62
2022/03/26 01:47:07;;;;;;;36.42;15.82;;;;;;;14.70;34.74;102799.59;5034838;28;20471;-62
2022/03/26 01:49:33;;;;;;;39.45;15.15;;;;;;;14.67;34.83;102794.41;5017786;28;20479;-61
2022/03/26 01:51:59;;;;;;;37.40;14.73;;;;;;;14.63;34.43;102792.91;5017905;28;20493;-64
2022/03/26 01:54:25;;;;;;;42.15;15.15;;;;;;;14.59;35.66;102786.88;5017816;28;20037;-64
2022/03/26 01:56:51;;;;;;;33.65;15.23;;;;;;;14.53;35.13;102790.84;5034473;28;20029;-64
2022/03/26 01:59:16;;;;;;;36.17;14.80;;;;;;;14.56;35.65;102795.16;5034033;28;20610;-64
2022/03/26 02:01:42;;;;;;;31.88;14.75;;;;;;;14.52;35.52;102791.81;5035618;28;20025;-64
2022/03/26 02:04:08;;;;;;;34.85;14.63;;;;;;;14.47;35.08;102785.88;5033969;28;20032;-64
2022/03/26 02:06:36;;;;;;;33.17;12.30;;;;;;;14.40;35.12;102787.28;5034757;28;20033;-63
2022/03/26 02:09:04;;;;;;;32.60;13.00;;;;;;;14.33;34.68;102785.09;5033757;28;20072;-64
2022/03/26 02:11:33;;;;;;;25.60;11.68;;;;;;;14.23;34.94;102779.47;5035126;28;20032;-64
2022/03/26 02:13:59;;;;;;;31.48;12.82;;;;;;;14.17;34.91;102779.88;5034962;28;20033;-64
2022/03/26 02:16:25;;;;;;;32.42;13.02;;;;;;;14.09;35.12;102774.16;5035187;28;20499;-64
2022/03/26 02:18:52;;;;;;;40.03;14.20;;;;;;;14.02;35.07;102775.50;5035056;28;20036;-64
2022/03/26 02:21:19;;;;;;;27.10;13.35;;;;;;;13.95;35.03;102775.09;5033749;28;20030;-64
2022/03/26 02:23:45;;;;;;;33.22;13.63;;;;;;;13.97;35.46;102777.66;5034718;28;20021;-64
2022/03/26 02:26:13;;;;;;;30.15;12.80;;;;;;;13.96;35.02;102781.31;5033741;28;20041;-64
2022/03/26 02:28:39;;;;;;;41.70;13.88;;;;;;;13.93;36.00;102786.94;5034764;28;20037;-61
2022/03/26 02:31:04;;;;;;;35.90;15.07;;;;;;;13.88;35.37;102778.25;5034961;28;20029;-61
2022/03/26 02:33:29;;;;;;;36.83;12.90;;;;;;;13.85;35.08;102778.47;5033524;28;20029;-61
2022/03/26 02:35:55;;;;;;;32.65;14.10;;;;;;;13.88;36.01;102789.91;5033662;28;20033;-61
2022/03/26 02:38:23;;;;;;;33.45;13.32;;;;;;;13.86;35.13;102785.59;5034605;28;20503;-64
2022/03/26 02:40:48;;;;;;;40.72;13.63;;;;;;;13.82;35.58;102790.31;5033347;28;20105;-64
2022/03/26 02:43:13;;;;;;;29.95;12.88;;;;;;;13.74;35.85;102781.88;5033518;28;20456;-64
2022/03/26 02:45:43;;;;;;;31.63;13.25;;;;;;;13.77;35.22;102794.28;5034769;28;20037;-64
2022/03/26 02:48:12;;;;;;;33.42;14.70;;;;;;;13.76;35.51;102797.97;5034389;28;20083;-64
2022/03/26 02:50:41;;;;;;;34.58;13.25;;;;;;;13.74;35.79;102803.44;5034955;28;20029;-64
2022/03/26 02:53:07;;;;;;;35.13;14.07;;;;;;;13.70;35.36;102798.34;5034533;28;20143;-63
2022/03/26 02:55:32;;;;;;;36.58;13.68;;;;;;;13.65;35.50;102804.03;5032843;28;20495;-64
2022/03/26 02:57:57;;;;;;;31.88;13.20;;;;;;;13.62;35.40;102803.38;5033714;28;20061;-61
2022/03/26 03:00:23;;;;;;;30.52;12.90;;;;;;;13.58;36.10;102800.03;5034338;28;20032;-64
2022/03/26 03:02:48;;;;;;;33.33;13.13;;;;;;;13.54;35.95;102794.94;5034273;28;20034;-64
2022/03/26 03:05:14;;;;;;;42.20;14.55;;;;;;;13.49;36.12;102794.34;5032856;28;20380;-64
2022/03/26 03:07:40;;;;;;;32.97;12.73;;;;;;;13.46;36.35;102797.25;5032896;28;20090;-61
2022/03/26 03:10:06;;;;;;;31.83;13.27;;;;;;;13.41;35.52;102801.13;5032990;28;20479;-61
2022/03/26 03:12:31;;;;;;;29.45;12.63;;;;;;;13.36;36.03;102792.47;5034242;28;20103;-61
2022/03/26 03:14:57;;;;;;;36.40;12.77;;;;;;;13.35;35.48;102803.31;5032706;28;20033;-61
2022/03/26 03:17:22;;;;;;;36.28;13.20;;;;;;;13.27;35.58;102794.88;5033785;28;20030;-61
2022/03/26 03:19:47;;;;;;;38.55;14.10;;;;;;;13.25;35.66;102805.75;5033985;28;20029;-61
2022/03/26 03:22:13;;;;;;;35.30;11.90;;;;;;;13.24;36.66;102804.03;5032806;28;20554;-61
2022/03/26 03:24:38;;;;;;;29.92;12.85;;;;;;;13.22;36.28;102805.97;5032852;28;20029;-62
2022/03/26 03:27:04;;;;;;;33.97;16.13;;;;;;;13.20;36.20;102810.59;5033872;28;20029;-61
2022/03/26 03:29:30;;;;;;;36.58;14.30;;;;;;;13.17;35.57;102808.09;5032649;28;20120;-61
2022/03/26 03:31:56;;;;;;;38.88;13.55;;;;;;;13.14;36.72;102802.03;5032538;28;20081;-61
2022/03/26 03:34:22;;;;;;;37.35;14.20;;;;;;;13.12;36.32;102803.97;5016053;28;20033;-62
2022/03/26 03:36:47;;;;;;;28.35;12.65;;;;;;;13.10;36.00;102801.34;5033609;28;20069;-61
2022/03/26 03:39:12;;;;;;;28.27;12.43;;;;;;;13.08;36.11;102799.72;5033314;28;20060;-61
2022/03/26 03:41:38;;;;;;;34.10;12.77;;;;;;;13.03;36.42;102805.38;5032293;28;20076;-61
2022/03/26 03:44:04;;;;;;;40.95;15.05;;;;;;;13.02;36.33;102811.69;5032780;28;20029;-61
2022/03/26 03:46:30;;;;;;;27.40;12.88;;;;;;;13.02;36.23;102813.50;5032944;28;20037;-61
2022/03/26 03:48:56;;;;;;;36.25;13.55;;;;;;;13.00;36.55;102815.44;5032124;28;20128;-61
2022/03/26 03:51:21;;;;;;;38.67;13.75;;;;;;;12.99;36.35;102811.88;5032184;28;20447;-61
2022/03/26 03:53:47;;;;;;;39.83;13.68;;;;;;;12.97;36.56;102811.13;5033355;28;20116;-62
2022/03/26 03:56:12;;;;;;;36.30;14.00;;;;;;;12.93;36.34;102803.31;5032275;28;20025;-61
2022/03/26 03:58:38;;;;;;;38.10;13.55;;;;;;;12.92;36.49;102813.25;5032241;28;20056;-61
2022/03/26 04:01:03;;;;;;;36.10;13.75;;;;;;;12.92;36.74;102807.00;5033295;28;20446;-61
2022/03/26 04:03:29;;;;;;;37.05;13.98;;;;;;;12.90;36.01;102811.63;5033339;28;20029;-61
2022/03/26 04:05:54;;;;;;;35.60;14.18;;;;;;;12.87;36.62;102812.63;5033649;28;20033;-61
2022/03/26 04:08:21;;;;;;;32.65;13.20;;;;;;;12.81;36.55;102816.56;5033725;28;20030;-61
2022/03/26 04:10:46;;;;;;;31.30;14.20;;;;;;;12.84;36.46;102820.94;5035613;28;20476;-61
2022/03/26 04:13:12;;;;;;;32.40;14.52;;;;;;;12.80;36.84;102820.25;5035890;28;20029;-63
2022/03/26 04:15:37;;;;;;;37.03;14.02;;;;;;;12.76;36.74;102812.44;5037579;28;20025;-61
2022/03/26 04:18:03;;;;;;;28.95;13.25;;;;;;;12.74;36.41;102820.63;5037601;28;20064;-61
2022/03/26 04:20:28;;;;;;;31.83;12.13;;;;;;;12.66;36.37;102812.16;5037485;28;20376;-61
2022/03/26 04:22:54;;;;;;;38.20;13.32;;;;;;;12.70;36.41;102824.44;5037308;28;20037;-61
2022/03/26 04:25:19;;;;;;;32.90;14.60;;;;;;;12.68;36.79;102825.50;5037305;28;20025;-61
2022/03/26 04:27:46;;;;;;;44.15;14.70;;;;;;;12.64;36.43;102824.84;5037522;28;20040;-61
2022/03/26 04:30:12;;;;;;;31.85;12.68;;;;;;;12.62;36.79;102820.47;5037794;28;20041;-61
2022/03/26 04:32:38;;;;;;;37.25;12.82;;;;;;;12.60;37.22;102817.03;5037222;28;20068;-61
2022/03/26 04:35:04;;;;;;;33.83;13.15;;;;;;;12.58;36.64;102824.34;5019412;28;20072;-61
2022/03/26 04:37:29;;;;;;;33.83;12.95;;;;;;;12.55;36.35;102835.28;5035935;28;20515;-61
2022/03/26 04:39:55;;;;;;;31.35;14.07;;;;;;;12.46;37.25;102817.00;5036958;28;20035;-61
2022/03/26 04:42:20;;;;;;;36.72;14.40;;;;;;;12.52;36.90;102830.06;5035965;28;20481;-60
2022/03/26 04:44:46;;;;;;;32.50;12.68;;;;;;;12.45;37.06;102823.34;5037086;28;20083;-61
2022/03/26 04:47:11;;;;;;;38.63;13.77;;;;;;;12.48;36.74;102833.94;5036899;28;20033;-61
2022/03/26 04:49:37;;;;;;;36.25;14.63;;;;;;;12.48;36.60;102828.56;5035627;28;20046;-61
2022/03/26 04:52:03;;;;;;;30.90;13.35;;;;;;;12.42;36.96;102823.53;5035482;28;20026;-61
2022/03/26 04:54:28;;;;;;;39.28;13.55;;;;;;;12.43;36.77;102838.69;5035545;28;20041;-61
2022/03/26 04:56:54;;;;;;;35.60;12.95;;;;;;;12.40;36.81;102836.19;5036647;28;20028;-62
2022/03/26 04:59:19;;;;;;;38.53;14.00;;;;;;;12.36;37.20;102837.34;5035320;28;20518;-61
2022/03/26 05:01:44;;;;;;;36.15;14.50;;;;;;;12.34;37.01;102836.56;5036819;28;20029;-61
2022/03/26 05:04:11;;;;;;;42.72;15.15;;;;;;;12.31;36.77;102834.06;5036110;28;20025;-61
2022/03/26 05:06:37;;;;;;;32.38;12.63;;;;;;;12.25;36.81;102828.06;5036328;28;20034;-61
2022/03/26 05:09:02;;;;;;;35.13;13.52;;;;;;;12.25;37.37;102837.97;5036455;28;20075;-61
2022/03/26 05:11:28;;;;;;;30.88;13.77;;;;;;;12.23;37.02;102829.13;5036330;28;20123;-61
2022/03/26 05:13:53;;;;;;;38.00;13.48;;;;;;;12.21;37.32;102828.34;5034972;28;20026;-61
2022/03/26 05:16:19;;;;;;;32.53;13.50;;;;;;;12.12;37.09;102823.50;5036478;28;20033;-61
2022/03/26 05:18:44;;;;;;;35.60;12.93;;;;;;;12.13;37.15;102823.44;5035183;28;20056;-61
2022/03/26 05:21:10;;;;;;;35.35;14.77;;;;;;;12.16;37.20;102838.50;5034783;28;20111;-61
2022/03/26 05:23:35;;;;;;;34.03;14.65;;;;;;;12.15;37.42;102832.25;5036100;28;20029;-61
2022/03/26 05:26:01;;;;;;;32.20;13.95;;;;;;;12.10;37.56;102829.00;5036261;28;20595;-60
2022/03/26 05:28:26;;;;;;;28.45;13.15;;;;;;;12.12;37.17;102839.63;5036160;28;20586;-61
2022/03/26 05:30:52;;;;;;;42.20;14.70;;;;;;;12.08;37.49;102833.59;5036143;28;20052;-61
2022/03/26 05:33:18;;;;;;;29.00;12.57;;;;;;;12.08;37.20;102838.97;5036113;28;20033;-60
2022/03/26 05:35:43;;;;;;;34.95;13.10;;;;;;;12.07;37.30;102853.34;5035830;28;20047;-61
2022/03/26 05:38:09;;;;;;;33.05;13.50;;;;;;;12.00;37.16;102841.25;5035110;28;20434;-61
2022/03/26 05:40:34;;;;;;;35.88;14.85;;;;;;;12.03;37.66;102851.78;5034641;28;20039;-61
2022/03/26 05:42:59;;;;;;;31.33;13.10;;;;;;;12.06;38.15;102854.28;5035967;28;20026;-61
2022/03/26 05:45:25;;;;;;;32.78;14.65;;;;;;;12.09;37.43;102870.22;5034716;28;20476;-61
2022/03/26 05:47:51;;;;;;;40.40;14.35;;;;;;;12.10;37.60;102861.22;5035468;28;20032;-62
2022/03/26 05:50:18;;;;;;;36.40;14.13;;;;;;;12.06;37.90;102851.59;5035739;28;20040;-61
2022/03/26 05:52:43;;;;;;;37.97;14.00;;;;;;;12.12;37.45;102862.00;5035718;28;20036;-61
2022/03/26 05:55:09;;;;;;;40.35;15.93;;;;;;;12.15;37.53;102859.13;5035662;28;20519;-61
2022/03/26 05:57:34;;;;;;;29.60;13.75;;;;;;;12.17;37.59;102859.91;5035082;28;20818;-61
2022/03/26 06:00:00;;;;;;;50.78;17.10;;;;;;;12.23;37.48;102867.59;5035489;28;20057;-61
2022/03/26 06:02:26;;;;;;;31.15;14.85;;;;;;;12.26;37.54;102877.31;5035582;28;20033;-61
2022/03/26 06:04:51;;;;;;;31.15;13.95;;;;;;;12.30;37.35;102878.00;5034304;28;20446;-61
2022/03/26 06:07:17;;;;;;;35.65;12.65;;;;;;;12.35;37.73;102886.66;5035483;28;20044;-61
2022/03/26 06:09:42;;;;;;;36.78;13.05;;;;;;;12.41;37.82;102888.97;5035572;28;20053;-61
2022/03/26 06:12:08;;;;;;;29.48;14.00;;;;;;;12.49;37.59;102886.72;5033705;28;20120;-61
2022/03/26 06:14:34;;;;;;;33.95;13.80;;;;;;;12.54;37.60;102879.22;5033916;28;20022;-61
2022/03/26 06:17:00;;;;;;;33.08;14.18;;;;;;;12.67;37.47;102878.41;5035043;28;20029;-61
2022/03/26 06:19:26;;;;;;;33.30;13.85;;;;;;;12.74;37.14;102881.59;5035148;28;20087;-60
2022/03/26 06:21:52;;;;;;;35.47;14.00;;;;;;;12.85;37.73;102888.06;5035083;28;20064;-61
2022/03/26 06:24:17;;;;;;;37.28;14.43;;;;;;;12.95;36.69;102888.38;5035004;28;20014;-61
2022/03/26 06:26:44;;;;;;;34.67;15.10;;;;;;;13.07;37.38;102886.72;5033813;28;20104;-61
2022/03/26 06:29:10;;;;;;;38.33;14.38;;;;;;;13.20;38.18;102885.94;5035079;28;20060;-61
2022/03/26 06:31:36;;;;;;;32.50;13.27;;;;;;;13.31;38.16;102886.13;5034732;28;20044;-64
2022/03/26 06:34:01;;;;;;;39.47;14.20;;;;;;;13.43;38.13;102885.31;5032956;28;20029;-61
2022/03/26 06:36:26;;;;;;;37.58;15.23;;;;;;;13.58;37.29;102898.78;5034960;28;20025;-62
2022/03/26 06:38:52;;;;;;;40.38;15.40;;;;;;;13.69;37.52;102896.25;5033137;28;20021;-61
2022/03/26 06:41:17;;;;;;;38.70;16.48;;;;;;;13.87;37.52;102901.31;5040998;28;20033;-61
2022/03/26 06:43:44;;;;;;;36.90;16.25;;;;;;;14.05;37.60;102901.09;5017476;28;20071;-61
2022/03/26 06:46:09;;;;;;;43.50;16.15;;;;;;;14.22;37.77;102901.72;5035023;28;20021;-61
2022/03/26 06:48:35;;;;;;;41.00;16.50;;;;;;;14.43;38.04;102899.47;5033759;28;20498;-61
2022/03/26 06:51:01;;;;;;;36.75;15.52;;;;;;;14.64;37.71;102911.47;5034590;28;20502;-61
2022/03/26 06:53:28;;;;;;;40.58;15.95;;;;;;;14.84;37.91;102904.72;5033185;28;20028;-61
2022/03/26 06:55:53;;;;;;;40.92;16.60;;;;;;;15.06;37.74;102910.34;5034684;28;20021;-61
2022/03/26 06:58:19;;;;;;;36.08;16.45;;;;;;;15.25;37.59;102910.78;5033226;28;20525;-61
2022/03/26 07:00:44;;;;;;;40.13;17.15;;;;;;;15.45;37.59;102906.66;5049205;28;20039;-61
2022/03/26 07:03:10;;;;;;;45.85;17.13;;;;;;;15.63;36.10;102911.63;5054878;28;20143;-61
2022/03/26 07:05:35;;;;;;;45.55;15.90;;;;;;;15.79;36.72;102899.72;5054723;28;20037;-62
2022/03/26 07:08:00;;;;;;;40.97;17.08;;;;;;;15.99;36.28;102909.94;5053145;28;20028;-61
2022/03/26 07:10:26;;;;;;;41.88;15.82;;;;;;;16.19;36.44;102909.34;5054423;28;20029;-62
2022/03/26 07:12:51;;;;;;;38.45;16.02;;;;;;;16.37;37.49;102913.34;5054553;28;20040;-62
2022/03/26 07:15:17;;;;;;;39.83;15.18;;;;;;;16.54;37.03;102902.16;5054138;28;20104;-62
2022/03/26 07:17:42;;;;;;;34.90;15.60;;;;;;;16.77;36.57;102906.66;5038054;28;20052;-62
2022/03/26 07:20:08;;;;;;;35.92;16.55;;;;;;;16.97;36.26;102912.38;5034606;28;20037;-62
2022/03/26 07:22:34;;;;;;;35.45;16.92;;;;;;;17.18;36.81;102900.72;5033647;28;20032;-62
2022/03/26 07:25:00;;;;;;;40.50;16.65;;;;;;;17.42;35.67;102915.00;5034535;28;20030;-62
2022/03/26 07:27:30;;;;;;;35.25;14.55;;;;;;;17.60;35.59;102912.72;5034568;28;20064;-62
2022/03/26 07:29:55;;;;;;;33.25;14.43;;;;;;;17.78;36.54;102910.38;5034621;28;20514;-62
2022/03/26 07:32:22;;;;;;;39.10;16.35;;;;;;;18.04;36.77;102917.22;5034656;28;20021;-62
2022/03/26 07:34:48;;;;;;;36.65;16.08;;;;;;;18.24;36.77;102918.28;5033191;28;20399;-62
2022/03/26 07:37:13;;;;;;;37.45;16.15;;;;;;;18.44;35.21;102914.75;5034421;28;20021;-62
2022/03/26 07:39:38;;;;;;;45.75;18.10;;;;;;;18.65;35.94;102917.56;5034523;28;20022;-62
2022/03/26 07:42:04;;;;;;;40.55;17.88;;;;;;;18.88;35.86;102922.72;5034708;28;20108;-62
2022/03/26 07:44:29;;;;;;;33.08;16.35;;;;;;;19.09;35.11;102928.19;5033595;28;20032;-62
2022/03/26 07:46:55;;;;;;;39.80;16.15;;;;;;;19.32;35.87;102921.56;5038196;28;20045;-62
2022/03/26 07:49:20;;;;;;;40.30;18.08;;;;;;;19.51;35.29;102918.13;5039418;28;20033;-62
2022/03/26 07:51:45;;;;;;;36.88;17.35;;;;;;;19.77;35.11;102924.81;5039238;28;20448;-62
2022/03/26 07:54:11;;;;;;;49.80;18.17;;;;;;;19.98;34.90;102930.19;5039011;28;20382;-62
2022/03/26 07:56:37;;;;;;;44.72;17.25;;;;;;;20.17;34.93;102927.50;5039086;28;20029;-62
2022/03/26 07:59:02;;;;;;;36.25;17.15;;;;;;;20.43;34.55;102934.19;5038203;28;20065;-64
2022/03/26 08:01:27;;;;;;;38.17;17.58;;;;;;;20.64;34.42;102940.34;5056791;28;20040;-64
2022/03/26 08:03:54;;;;;;;49.45;16.38;;;;;;;20.83;34.08;102937.63;5058434;28;20025;-65
2022/03/26 08:06:23;;;;;;;40.97;18.30;;;;;;;21.04;34.11;102933.88;5058321;28;20025;-65
2022/03/26 08:08:48;;;;;;;49.58;18.67;;;;;;;21.23;33.56;102933.84;5057130;28;20510;-64
2022/03/26 08:11:14;;;;;;;38.97;18.30;;;;;;;21.43;33.75;102938.25;5057936;28;20051;-64
2022/03/26 08:13:39;;;;;;;37.25;16.88;;;;;;;21.61;33.54;102941.06;5057129;28;20021;-64
2022/03/26 08:16:07;;;;;;;40.42;16.35;;;;;;;21.75;33.64;102938.69;5056937;28;20104;-64
2022/03/26 08:18:32;;;;;;;37.65;17.92;;;;;;;21.96;32.82;102938.50;5056801;28;20021;-65
2022/03/26 08:20:58;;;;;;;45.20;18.73;;;;;;;22.14;33.18;102942.09;5055575;28;20027;-65
2022/03/26 08:23:23;;;;;;;33.72;16.30;;;;;;;22.30;32.39;102936.84;5055325;28;20179;-65
2022/03/26 08:28:32;;;;;;;38.92;17.13;;;;;;;22.59;32.12;102936.63;5056634;28;20095;-65
2022/03/26 08:30:58;;;;;;;36.35;17.63;;;;;;;22.69;32.93;102931.13;5056525;28;20116;-64
2022/03/26 08:33:23;;;;;;;44.13;17.17;;;;;;;22.90;31.94;102939.81;5055066;28;20034;-64
2022/03/26 08:35:48;;;;;;;43.60;19.17;;;;;;;23.03;32.66;102938.41;5056324;28;20104;-64
2022/03/26 08:38:14;;;;;;;34.22;16.95;;;;;;;23.23;32.39;102935.50;5056498;28;20029;-65
2022/03/26 08:40:39;;;;;;;37.20;17.52;;;;;;;23.37;31.83;102934.88;5054963;28;20479;-64
2022/03/26 08:43:06;;;;;;;41.95;16.60;;;;;;;23.57;31.68;102939.13;5052515;28;20071;-64
2022/03/26 08:45:31;;;;;;;41.42;19.85;;;;;;;23.73;32.03;102928.25;5056183;28;20017;-65
2022/03/26 08:47:57;;;;;;;42.95;17.50;;;;;;;23.92;31.91;102933.50;5056256;28;20028;-65
2022/03/26 08:50:22;;;;;;;41.75;18.83;;;;;;;24.10;31.02;102931.53;5054955;28;20029;-65
2022/03/26 08:52:48;;;;;;;41.13;18.75;;;;;;;24.26;31.32;102930.75;5056178;28;20047;-65
2022/03/26 08:55:17;;;;;;;40.85;18.58;;;;;;;24.43;30.47;102937.09;5054640;28;20025;-65
2022/03/26 08:57:43;;;;;;;42.75;19.60;;;;;;;24.61;30.28;102930.44;5055774;28;20075;-64
2022/03/26 09:00:10;;;;;;;37.30;19.17;;;;;;;24.77;31.21;102927.72;5055626;28;20048;-65
2022/03/26 09:02:36;;;;;;;36.35;18.88;;;;;;;24.92;30.10;102938.03;5055786;28;20052;-65
2022/03/26 09:05:02;;;;;;;43.58;18.27;;;;;;;25.03;30.82;102923.97;5055850;28;20021;-64
2022/03/26 09:07:27;;;;;;;37.90;18.40;;;;;;;25.22;30.03;102927.19;5055871;28;20454;-64
2022/03/26 09:09:53;;;;;;;36.20;18.90;;;;;;;25.33;30.23;102923.22;5055838;28;20486;-64
2022/03/26 09:12:18;;;;;;;34.05;18.35;;;;;;;25.51;29.90;102931.28;5055654;28;20028;-62
2022/03/26 09:14:43;;;;;;;47.10;19.13;;;;;;;25.65;29.68;102925.94;5055617;28;20108;-62
2022/03/26 09:17:09;;;;;;;41.28;19.40;;;;;;;25.81;29.39;102925.84;5055576;28;20029;-62
2022/03/26 09:19:35;;;;;;;37.50;18.20;;;;;;;25.96;29.46;102924.06;5055539;28;20532;-62
2022/03/26 09:22:00;;;;;;;42.13;19.33;;;;;;;26.14;29.71;102931.22;5055532;28;20457;-61
2022/03/26 09:24:26;;;;;;;38.45;18.25;;;;;;;26.32;29.61;102929.06;5055486;28;20048;-62
2022/03/26 09:26:51;;;;;;;38.47;19.00;;;;;;;26.46;29.25;102925.53;5055326;28;20537;-62
2022/03/26 09:29:17;;;;;;;43.55;20.20;;;;;;;26.69;28.78;102931.03;5055654;28;20052;-62
2022/03/26 09:31:42;;;;;;;45.50;19.40;;;;;;;26.81;28.95;102924.94;5054435;28;20045;-63
2022/03/26 09:34:08;;;;;;;42.53;17.13;;;;;;;26.94;28.58;102925.16;5055243;28;20039;-62
2022/03/26 09:36:33;;;;;;;39.30;18.80;;;;;;;27.05;28.04;102924.69;5054151;28;20025;-63
2022/03/26 09:38:58;;;;;;;41.40;19.80;;;;;;;27.18;28.27;102926.84;5055141;28;20025;-63
2022/03/26 09:41:24;;;;;;;35.03;17.98;;;;;;;27.36;27.96;102923.72;5055229;28;20029;-62
2022/03/26 09:43:50;;;;;;;35.67;17.23;;;;;;;27.61;27.20;102908.69;5055210;28;20024;-62
2022/03/26 09:46:15;;;;;;;39.35;18.13;;;;;;;28.04;27.50;102912.44;5055252;28;20089;-62
2022/03/26 09:48:42;;;;;;;37.40;17.98;;;;;;;28.65;27.49;102911.00;5053713;28;20062;-63
2022/03/26 09:51:08;;;;;;;35.08;16.98;;;;;;;29.69;26.79;102910.97;5054015;28;20035;-63
2022/03/26 09:53:34;;;;;;;38.60;18.23;;;;;;;31.77;24.30;102902.28;5054946;28;20028;-63
2022/03/26 09:55:59;;;;;;;37.95;18.40;;;;;;;31.87;23.65;102901.81;5054823;28;20032;-63
2022/03/26 09:58:24;;;;;;;36.72;19.70;;;;;;;31.38;24.65;102905.16;5053716;28;20036;-62
2022/03/26 10:00:53;;;;;;;40.33;19.25;;;;;;;31.18;25.02;102898.78;5053641;28;20017;-62
2022/03/26 10:03:19;;;;;;;35.00;17.17;;;;;;;31.08;24.82;102913.06;5054756;28;20025;-63
2022/03/26 10:05:44;;;;;;;39.25;19.30;;;;;;;31.17;24.59;102917.34;5054673;28;20017;-62
2022/03/26 10:08:22;;;;;;;38.35;17.88;;;;;;;31.28;24.46;102913.03;5054038;28;20021;-64
2022/03/26 10:10:49;;;;;;;34.92;17.70;;;;;;;31.45;24.02;102900.44;5054558;28;20036;-62
2022/03/26 10:13:37;;;;;;;38.17;19.20;;;;;;;31.68;23.92;102904.47;5054822;28;20036;-63
2022/03/26 10:16:13;;;;;;;37.38;18.17;;;;;;;31.93;23.53;102909.25;5053357;28;20515;-63
2022/03/26 10:18:43;;;;;;;40.50;17.98;;;;;;;32.20;23.71;102905.31;5054574;28;20032;-63
2022/03/26 10:21:11;;;;;;;35.33;17.83;;;;;;;32.51;23.55;102910.88;5054539;28;20031;-63
2022/03/26 10:23:37;;;;;;;37.55;18.90;;;;;;;32.79;23.34;102903.00;5053638;28;20024;-63
2022/03/26 10:26:14;;;;;;;32.47;17.48;;;;;;;33.08;22.26;102907.06;5053210;28;20396;-63
2022/03/26 10:28:40;;;;;;;32.55;18.52;;;;;;;33.30;22.71;102899.16;5054274;28;20041;-63
2022/03/26 10:34:21;;;;;;;33.75;17.38;;;;;;;33.72;21.63;102897.41;5054151;28;20032;-63
2022/03/26 10:36:55;;;;;;;27.63;16.90;;;;;;;33.91;21.43;102897.16;5052926;28;20487;-63
2022/03/26 10:39:22;;;;;;;34.67;16.55;;;;;;;34.11;22.12;102896.06;5052914;28;20274;-63
2022/03/26 10:41:49;;;;;;;30.52;16.85;;;;;;;34.32;21.20;102890.81;5054258;28;20083;-63
2022/03/26 10:44:17;;;;;;;34.47;18.20;;;;;;;34.58;21.41;102897.97;5054081;28;20017;-63
2022/03/26 10:46:50;;;;;;;35.13;17.52;;;;;;;34.68;21.33;102892.63;5052635;28;20036;-63
2022/03/26 10:49:25;;;;;;;34.88;17.33;;;;;;;34.68;20.32;102889.84;5054131;28;20123;-63
2022/03/26 10:51:50;;;;;;;32.72;17.15;;;;;;;34.78;21.39;102898.50;5053144;28;20548;-63
2022/03/26 10:54:16;;;;;;;30.83;16.63;;;;;;;34.81;21.25;102891.59;5052475;28;20043;-62
2022/03/26 10:56:41;;;;;;;33.47;16.88;;;;;;;34.86;21.02;102884.19;5054111;28;20025;-63
2022/03/26 10:59:08;;;;;;;31.30;17.95;;;;;;;34.94;20.39;102885.78;5053304;28;20053;-63
2022/03/26 11:01:35;;;;;;;35.30;17.42;;;;;;;34.91;20.49;102884.31;5052573;28;20090;-63
2022/03/26 11:04:01;;;;;;;30.23;17.25;;;;;;;34.90;19.64;102884.53;5052718;28;20079;-63
2022/03/26 11:06:27;;;;;;;32.13;16.48;;;;;;;34.91;19.90;102881.53;5053801;28;20060;-63
2022/03/26 11:08:59;;;;;;;35.75;17.00;;;;;;;35.00;20.04;102874.53;5052426;28;20052;-63